Vb Adriatico — EAWD — position and weather

sailwx.info

Track history (hours):
 
Tides and Currents Weather Stations Pressure Air Temp Water Temp Dewpoint Dewpoint Depression Visibility Wind Speed Wind Dir Waves Ship Positions

Vb Adriatico

Last reported at 2017-Sep-24 01:30 UTC. Time now 2017-Sep-24 01:40 UTC.
Position N 28°08' W 015°25'.

Length 28 m; draft 3 m.

Type: Tug. MMSI: 224870000.

Date/timePositionNaut miles runAvg speedWind from/ knotsBaromVisibWave heightAir tempDewpointWater temp
2017-Sep-24 01:30N 28°08' W 015°25'1 1.4
2017-Sep-24 01:00N 28°08' W 015°25'1 1.4
2017-Sep-24 00:31N 28°08' W 015°25'0 0.0
2017-Sep-24 00:00N 28°08' W 015°25'2 3.5
2017-Sep-23 23:31N 28°10' W 015°24'0 0.7
2017-Sep-23 23:00N 28°09' W 015°24'0 0.4
2017-Sep-23 22:30N 28°09' W 015°24'1 2.8
2017-Sep-23 22:00N 28°08' W 015°25'0 0.3
2017-Sep-23 21:30N 28°08' W 015°25'0 0.0
2017-Sep-23 21:01N 28°08' W 015°25'0 0.0
2017-Sep-23 20:30N 28°08' W 015°25'0 0.0
2017-Sep-23 20:00N 28°08' W 015°25'0 0.0
2017-Sep-22 02:00N 28°08' W 015°25'0 0.0
2017-Sep-22 01:30N 28°08' W 015°25'0 0.0
2017-Sep-22 01:00N 28°08' W 015°25'0 0.4
2017-Sep-22 00:30N 28°08' W 015°25'0 0.4
2017-Sep-22 00:00N 28°08' W 015°25'0 0.0
2017-Sep-21 23:30N 28°08' W 015°25'0 0.0
2017-Sep-21 23:00N 28°08' W 015°25'0 0.0
2017-Sep-21 22:30N 28°08' W 015°25'0 0.0
2017-Sep-21 22:00N 28°08' W 015°25'1 1.8
2017-Sep-21 21:30N 28°07' W 015°25'1 2.2
2017-Sep-21 21:00N 28°09' W 015°25'0 0.8
2017-Sep-21 20:30N 28°08' W 015°25'0 0.4
2017-Sep-21 20:00N 28°08' W 015°25'0 0.8
2017-Sep-21 19:30N 28°08' W 015°25'1 2.3
2017-Sep-21 19:00N 28°07' W 015°24'1 2.3
2017-Sep-21 18:30N 28°08' W 015°25'0 0.5
2017-Sep-21 18:00N 28°08' W 015°25'0 0.0
2017-Sep-21 17:30N 28°08' W 015°25'0 0.0
2017-Sep-21 17:00N 28°08' W 015°25'0 0.0
2017-Sep-21 16:30N 28°08' W 015°25'0 0.0
2017-Sep-21 16:00N 28°08' W 015°25'0 0.0
2017-Sep-21 15:30N 28°08' W 015°25'0 0.0
2017-Sep-21 15:00N 28°08' W 015°25'1 2.2
2017-Sep-21 14:31N 28°08' W 015°24'1 2.6
2017-Sep-21 14:00N 28°09' W 015°24'0 0.9
2017-Sep-21 13:31N 28°09' W 015°24'0 0.4
2017-Sep-21 13:00N 28°09' W 015°24'1 2.6
2017-Sep-21 12:30N 28°08' W 015°25'0 0.0
2017-Sep-21 12:00N 28°08' W 015°25'0 0.0
2017-Sep-21 11:30N 28°08' W 015°25'1 1.5
2017-Sep-21 11:00N 28°09' W 015°25'0 0.4
2017-Sep-21 10:30N 28°08' W 015°25'1 2.4
2017-Sep-21 10:00N 28°07' W 015°24'1 2.5
2017-Sep-21 09:30N 28°08' W 015°25'0 0.0
2017-Sep-21 09:00N 28°08' W 015°25'0 0.0
2017-Sep-21 08:30N 28°08' W 015°25'0 0.0
2017-Sep-21 08:00N 28°08' W 015°25'0 0.0
2017-Sep-21 07:30N 28°08' W 015°25'0 0.1
2017-Sep-21 07:00N 28°08' W 015°25'0 0.1
2017-Sep-21 06:30N 28°08' W 015°25'0 0.0
2017-Sep-21 06:00N 28°08' W 015°25'0 0.0
2017-Sep-21 05:30N 28°08' W 015°25'0 0.2
2017-Sep-21 05:00N 28°08' W 015°25'0 0.2
2017-Sep-21 04:30N 28°08' W 015°25'0 0.0
2017-Sep-21 04:00N 28°08' W 015°25'0 0.0
2017-Sep-21 03:30N 28°08' W 015°25'0 0.0
2017-Sep-21 03:00N 28°08' W 015°25'0 0.0
2017-Sep-21 02:30N 28°08' W 015°25'0 0.0
2017-Sep-21 02:00N 28°08' W 015°25'0 0.0
2017-Sep-21 01:30N 28°08' W 015°25'0 0.0
2017-Sep-21 01:00N 28°08' W 015°25'1 1.4
2017-Sep-21 00:30N 28°08' W 015°25'5 9.5
2017-Sep-21 00:00N 28°03' W 015°23'5 9.5
2017-Sep-20 23:30N 27°59' W 015°20'5 9.3
2017-Sep-20 23:01N 27°55' W 015°18'510.1
2017-Sep-20 22:31N 27°51' W 015°22'2 0.9
2017-Sep-20 20:11N 27°51' W 015°24'0 0.0
2017-Sep-20 19:57N 27°51' W 015°24'0 0.0
2017-Sep-20 19:25N 27°51' W 015°24'0 0.0
2017-Sep-20 19:00N 27°51' W 015°24'1 1.7
2017-Sep-20 18:27N 27°50' W 015°23'511.3
2017-Sep-20 18:00N 27°54' W 015°19'510.8
2017-Sep-20 17:30N 27°59' W 015°20'510.8
2017-Sep-20 17:00N 28°04' W 015°23'5 9.3
2017-Sep-20 16:30N 28°08' W 015°25'0 0.0
2017-Sep-20 16:00N 28°08' W 015°25'0 0.0
2017-Sep-20 15:30N 28°08' W 015°25'0 0.0
2017-Sep-20 15:00N 28°08' W 015°25'0 0.0
2017-Sep-20 14:00N 28°08' W 015°25'0 0.0
2017-Sep-20 13:30N 28°08' W 015°25'0 0.0
2017-Sep-20 13:00N 28°08' W 015°25'0 0.0
2017-Sep-20 12:30N 28°08' W 015°25'0 0.0
2017-Sep-20 12:00N 28°08' W 015°25'0 0.0
2017-Sep-20 11:30N 28°08' W 015°25'0 0.0
2017-Sep-20 11:00N 28°08' W 015°25'0 0.0
2017-Sep-20 10:30N 28°08' W 015°25'0 0.0
2017-Sep-20 10:00N 28°08' W 015°25'0 0.0
2017-Sep-20 09:30N 28°08' W 015°25'0 0.0
2017-Sep-20 09:00N 28°08' W 015°25'0 0.0
2017-Sep-20 08:30N 28°08' W 015°25'0 0.0
2017-Sep-20 08:00N 28°08' W 015°25'0 0.8
2017-Sep-20 07:30N 28°08' W 015°25'1 1.4
2017-Sep-20 07:00N 28°08' W 015°25'1 1.0
2017-Sep-20 06:30N 28°08' W 015°25'0 0.0
2017-Sep-20 06:00N 28°08' W 015°25'0 0.0
2017-Sep-20 05:30N 28°08' W 015°25'0 0.0
2017-Sep-20 05:00N 28°08' W 015°25'0 0.0
2017-Sep-20 04:30N 28°08' W 015°25'0 0.0
2017-Sep-20 04:00N 28°08' W 015°25'0 0.0
2017-Sep-20 03:30N 28°08' W 015°25'0 0.0
2017-Sep-20 03:00N 28°08' W 015°25'0 0.0
2017-Sep-20 02:30N 28°08' W 015°25'0 0.0
2017-Sep-20 02:00N 28°08' W 015°25'0 0.0
2017-Sep-20 01:30N 28°08' W 015°25'0 0.6
2017-Sep-20 01:00N 28°08' W 015°25'0 0.6
2017-Sep-20 00:30N 28°08' W 015°25'0 0.0
2017-Sep-20 00:00N 28°08' W 015°25'0 0.0
2017-Sep-19 23:30N 28°08' W 015°25'0 0.0
2017-Sep-19 23:00N 28°08' W 015°25'0 0.0
2017-Sep-19 22:30N 28°08' W 015°25'0 0.0
2017-Sep-19 21:59N 28°08' W 015°25'0 0.0
2017-Sep-19 21:30N 28°08' W 015°25'0 0.0
2017-Sep-19 21:00N 28°08' W 015°25'0 0.0
2017-Sep-19 20:31N 28°08' W 015°25'0 0.0
2017-Sep-19 20:00N 28°08' W 015°25'0 0.0
2017-Sep-19 19:31N 28°08' W 015°25'0 0.0
2017-Sep-19 19:00N 28°08' W 015°25'0 0.0
2017-Sep-19 18:30N 28°08' W 015°25'0 0.8
2017-Sep-19 18:01N 28°09' W 015°25'0 0.8
2017-Sep-19 17:31N 28°08' W 015°25'0 0.0
2017-Sep-19 17:00N 28°08' W 015°25'0 0.0
2017-Sep-19 16:30N 28°08' W 015°25'1 1.3
2017-Sep-19 16:00N 28°08' W 015°25'1 1.3
2017-Sep-19 15:30N 28°08' W 015°25'0 0.0
2017-Sep-19 15:00N 28°08' W 015°25'0 0.0
2017-Sep-19 14:30N 28°08' W 015°25'0 0.0
2017-Sep-19 14:00N 28°08' W 015°25'0 0.0
2017-Sep-19 13:30N 28°08' W 015°25'1 1.2
2017-Sep-19 13:00N 28°08' W 015°25'0 0.2
2017-Sep-19 12:30N 28°08' W 015°25'1 1.4
2017-Sep-19 12:00N 28°07' W 015°24'0 0.2
2017-Sep-19 11:30N 28°07' W 015°24'1 2.5
2017-Sep-19 11:00N 28°08' W 015°25'0 0.0
2017-Sep-19 10:30N 28°08' W 015°25'0 0.0
2017-Sep-19 10:00N 28°08' W 015°25'0 0.0
2017-Sep-19 09:31N 28°08' W 015°25'0 0.0
2017-Sep-19 09:00N 28°08' W 015°25'0 0.0
2017-Sep-19 08:31N 28°08' W 015°25'0 0.0
2017-Sep-19 08:00N 28°08' W 015°25'0 0.0
2017-Sep-19 07:30N 28°08' W 015°25'0 0.0
2017-Sep-19 07:00N 28°08' W 015°25'0 0.0
2017-Sep-19 06:30N 28°08' W 015°25'0 0.0
2017-Sep-19 06:00N 28°08' W 015°25'0 0.0
2017-Sep-19 05:30N 28°08' W 015°25'0 0.0
2017-Sep-19 05:00N 28°08' W 015°25'0 0.0
2017-Sep-19 04:30N 28°08' W 015°25'0 0.0
2017-Sep-19 04:00N 28°08' W 015°25'0 0.0
2017-Sep-19 03:30N 28°08' W 015°25'0 0.0
2017-Sep-19 03:00N 28°08' W 015°25'0 0.0
2017-Sep-19 02:30N 28°08' W 015°25'0 0.0
2017-Sep-19 02:00N 28°08' W 015°25'0 0.0
2017-Sep-19 01:30N 28°08' W 015°25'1 2.3
2017-Sep-19 01:00N 28°07' W 015°25'0 0.9
2017-Sep-19 00:30N 28°08' W 015°25'1 1.6
2017-Sep-19 00:00N 28°08' W 015°25'0 0.0
2017-Sep-18 23:30N 28°08' W 015°25'0 0.0
2017-Sep-18 23:00N 28°08' W 015°25'0 0.0
2017-Sep-18 22:30N 28°08' W 015°25'0 0.0
2017-Sep-18 22:00N 28°08' W 015°25'0 0.0
2017-Sep-18 21:30N 28°08' W 015°25'0 0.0
2017-Sep-18 21:00N 28°08' W 015°25'0 0.0
2017-Sep-18 20:30N 28°08' W 015°25'0 0.0
2017-Sep-18 20:01N 28°08' W 015°25'0 0.1
2017-Sep-18 19:30N 28°08' W 015°25'0 0.1
2017-Sep-18 19:00N 28°08' W 015°25'0 0.0
2017-Sep-18 18:30N 28°08' W 015°25'0 0.0
2017-Sep-18 18:01N 28°08' W 015°25'0 0.0
2017-Sep-18 17:30N 28°08' W 015°25'0 0.0
2017-Sep-18 17:00N 28°08' W 015°25'0 0.0
2017-Sep-18 16:30N 28°08' W 015°25'0 0.0
2017-Sep-18 16:00N 28°08' W 015°25'0 0.0
2017-Sep-18 15:30N 28°08' W 015°25'0 0.0
2017-Sep-18 15:00N 28°08' W 015°25'0 0.0
2017-Sep-18 14:31N 28°08' W 015°25'0 0.0
2017-Sep-18 14:00N 28°08' W 015°25'0 0.5
2017-Sep-18 13:30N 28°08' W 015°25'0 0.4
2017-Sep-18 13:00N 28°08' W 015°25'0 0.2
2017-Sep-18 12:30N 28°08' W 015°25'0 0.0
2017-Sep-18 12:00N 28°08' W 015°25'0 0.0
2017-Sep-18 11:30N 28°08' W 015°25'0 0.0
2017-Sep-18 11:00N 28°08' W 015°25'0 0.0
2017-Sep-18 10:30N 28°08' W 015°25'0 0.0
2017-Sep-18 10:00N 28°08' W 015°25'0 0.0
2017-Sep-18 09:30N 28°08' W 015°25'0 0.0
2017-Sep-18 09:00N 28°08' W 015°25'0 0.0
2017-Sep-18 08:30N 28°08' W 015°25'0 0.0
2017-Sep-18 08:00N 28°08' W 015°25'0 0.0
2017-Sep-18 07:30N 28°08' W 015°25'0 0.0
2017-Sep-18 07:01N 28°08' W 015°25'0 0.0
2017-Sep-18 06:30N 28°08' W 015°25'1 1.4
2017-Sep-18 06:01N 28°08' W 015°25'1 1.4
2017-Sep-18 05:30N 28°08' W 015°25'0 0.0
2017-Sep-18 05:00N 28°08' W 015°25'0 0.0
2017-Sep-18 04:30N 28°08' W 015°25'0 0.0
2017-Sep-18 04:00N 28°08' W 015°25'0 0.0
2017-Sep-18 03:30N 28°08' W 015°25'0 0.0
2017-Sep-18 03:00N 28°08' W 015°25'0 0.0
2017-Sep-18 02:30N 28°08' W 015°25'0 0.0
2017-Sep-18 02:00N 28°08' W 015°25'0 0.0
2017-Sep-18 01:30N 28°08' W 015°25'0 0.0
2017-Sep-18 01:00N 28°08' W 015°25'0 0.0
2017-Sep-18 00:31N 28°08' W 015°25'0 0.0
2017-Sep-18 00:00N 28°08' W 015°25'0 0.0
2017-Sep-17 23:30N 28°08' W 015°25'0 0.0
2017-Sep-17 23:00N 28°08' W 015°25'0 0.0
2017-Sep-17 22:30N 28°08' W 015°25'0 0.0
2017-Sep-17 22:00N 28°08' W 015°25'0 0.0
2017-Sep-17 21:30N 28°08' W 015°25'0 0.0
2017-Sep-17 21:00N 28°08' W 015°25'0 0.0
2017-Sep-17 20:30N 28°08' W 015°25'0 0.0
2017-Sep-17 20:00N 28°08' W 015°25'0 0.0
2017-Sep-17 19:30N 28°08' W 015°25'0 0.0
2017-Sep-17 19:00N 28°08' W 015°25'0 0.0
2017-Sep-17 18:31N 28°08' W 015°25'0 0.0
2017-Sep-17 18:00N 28°08' W 015°25'0 0.0
2017-Sep-17 17:30N 28°08' W 015°25'0 0.0
2017-Sep-17 17:00N 28°08' W 015°25'0 0.0
2017-Sep-17 16:30N 28°08' W 015°25'0 0.0
2017-Sep-17 16:01N 28°08' W 015°25'0 0.0
2017-Sep-17 15:31N 28°08' W 015°25'0 0.0
2017-Sep-17 15:00N 28°08' W 015°25'0 0.0
2017-Sep-17 14:30N 28°08' W 015°25'0 0.0
2017-Sep-17 14:00N 28°08' W 015°25'0 0.0
2017-Sep-17 13:30N 28°08' W 015°25'0 0.0
2017-Sep-17 13:00N 28°08' W 015°25'0 0.0
2017-Sep-17 12:31N 28°08' W 015°25'0 0.0
2017-Sep-17 12:01N 28°08' W 015°25'0 0.0
2017-Sep-17 11:31N 28°08' W 015°25'1 1.6
2017-Sep-17 11:00N 28°08' W 015°25'1 1.2
2017-Sep-17 10:30N 28°07' W 015°24'0 0.7
2017-Sep-17 10:00N 28°08' W 015°25'1 1.0
2017-Sep-17 09:30N 28°08' W 015°25'1 1.3
2017-Sep-17 09:00N 28°08' W 015°25'0 0.0
2017-Sep-17 08:30N 28°08' W 015°25'0 0.0
2017-Sep-17 08:00N 28°08' W 015°25'0 0.0
2017-Sep-17 07:30N 28°08' W 015°25'0 0.0
2017-Sep-17 07:00N 28°08' W 015°25'0 0.0
2017-Sep-17 06:30N 28°08' W 015°25'0 0.0
2017-Sep-17 06:00N 28°08' W 015°25'0 0.0
2017-Sep-17 05:30N 28°08' W 015°25'0 0.0
2017-Sep-17 05:00N 28°08' W 015°25'1 1.4
2017-Sep-17 04:30N 28°08' W 015°25'1 1.2
2017-Sep-17 04:00N 28°09' W 015°25'0 0.9
2017-Sep-17 03:30N 28°08' W 015°25'0 0.0
2017-Sep-17 03:00N 28°08' W 015°25'0 0.0
2017-Sep-17 02:30N 28°08' W 015°25'0 0.0
2017-Sep-17 02:01N 28°08' W 015°25'0 0.0
2017-Sep-17 01:30N 28°08' W 015°25'0 0.4
2017-Sep-17 01:01N 28°08' W 015°25'0 0.0
2017-Sep-17 00:31N 28°08' W 015°25'0 0.0
2017-Sep-17 00:00N 28°08' W 015°25'0 0.0
2017-Sep-16 23:30N 28°08' W 015°25'0 0.0
2017-Sep-16 23:00N 28°08' W 015°25'0 0.0
2017-Sep-16 22:31N 28°08' W 015°25'0 0.0
2017-Sep-16 22:01N 28°08' W 015°25'0 0.0
2017-Sep-16 21:30N 28°08' W 015°25'0 0.0
2017-Sep-16 21:01N 28°08' W 015°25'0 0.0
2017-Sep-16 20:30N 28°08' W 015°25'0 0.0
2017-Sep-16 20:01N 28°08' W 015°25'0 0.0
2017-Sep-16 19:30N 28°08' W 015°25'0 0.0
2017-Sep-16 19:00N 28°08' W 015°25'0 0.0
2017-Sep-16 18:30N 28°08' W 015°25'0 0.0
2017-Sep-16 18:00N 28°08' W 015°25'0 0.0
2017-Sep-16 17:30N 28°08' W 015°25'0 0.0
2017-Sep-16 17:00N 28°08' W 015°25'0 0.0
2017-Sep-16 16:30N 28°08' W 015°25'0 0.0
2017-Sep-16 16:00N 28°08' W 015°25'0 0.0
2017-Sep-16 15:30N 28°08' W 015°25'0 0.0
2017-Sep-16 15:00N 28°08' W 015°25'0 0.0
2017-Sep-16 14:30N 28°08' W 015°25'0 0.0
2017-Sep-16 14:00N 28°08' W 015°25'1 1.7
2017-Sep-16 13:30N 28°09' W 015°24'0 0.1
2017-Sep-16 13:00N 28°09' W 015°25'1 2.0
2017-Sep-16 12:30N 28°08' W 015°25'0 0.2
2017-Sep-16 12:00N 28°08' W 015°25'0 0.3
2017-Sep-16 11:31N 28°08' W 015°25'1 1.8
2017-Sep-16 11:00N 28°09' W 015°25'0 0.0
2017-Sep-16 10:30N 28°09' W 015°25'1 2.2
2017-Sep-16 10:00N 28°08' W 015°25'1 2.8
2017-Sep-16 09:30N 28°09' W 015°25'2 3.1
2017-Sep-16 09:01N 28°08' W 015°25'1 1.7
2017-Sep-16 08:31N 28°08' W 015°25'0 0.0
2017-Sep-16 08:00N 28°08' W 015°25'0 0.0
2017-Sep-16 07:30N 28°08' W 015°25'0 0.0
2017-Sep-16 07:00N 28°08' W 015°25'0 0.0
2017-Sep-16 06:30N 28°08' W 015°25'0 0.0
2017-Sep-16 06:00N 28°08' W 015°25'0 0.0
2017-Sep-16 05:30N 28°08' W 015°25'0 0.0
2017-Sep-16 05:00N 28°08' W 015°25'0 0.0
2017-Sep-16 04:30N 28°08' W 015°25'0 0.0
2017-Sep-16 04:00N 28°08' W 015°25'0 0.0
2017-Sep-16 03:30N 28°08' W 015°25'1 1.2
2017-Sep-16 03:00N 28°08' W 015°25'1 1.2
2017-Sep-16 02:30N 28°08' W 015°25'0 0.0
2017-Sep-16 02:00N 28°08' W 015°25'0 0.0
2017-Sep-16 01:30N 28°08' W 015°25'0 0.0
2017-Sep-16 01:00N 28°08' W 015°25'0 0.0
2017-Sep-16 00:30N 28°08' W 015°25'0 0.0
2017-Sep-16 00:00N 28°08' W 015°25'0 0.0
2017-Sep-15 23:30N 28°08' W 015°25'0 0.0
2017-Sep-15 23:00N 28°08' W 015°25'0 0.0
2017-Sep-15 22:30N 28°08' W 015°25'0 0.0
2017-Sep-15 22:00N 28°08' W 015°25'0 0.0
2017-Sep-15 21:31N 28°08' W 015°25'0 0.0
2017-Sep-15 21:00N 28°08' W 015°25'0 0.0
2017-Sep-15 20:31N 28°08' W 015°25'0 0.0
2017-Sep-15 20:00N 28°08' W 015°25'0 0.0
2017-Sep-15 19:30N 28°08' W 015°25'0 0.0
2017-Sep-15 19:00N 28°08' W 015°25'0 0.0
2017-Sep-15 18:30N 28°08' W 015°25'0 0.0
2017-Sep-15 18:00N 28°08' W 015°25'0 0.0
2017-Sep-15 17:31N 28°08' W 015°25'0 0.0
2017-Sep-15 17:00N 28°08' W 015°25'0 0.0
2017-Sep-15 16:31N 28°08' W 015°25'0 0.0
2017-Sep-15 16:00N 28°08' W 015°25'1 1.8
2017-Sep-15 15:30N 28°08' W 015°25'1 1.3
2017-Sep-15 15:00N 28°07' W 015°24'1 1.8
2017-Sep-15 14:30N 28°08' W 015°25'0 0.3
2017-Sep-15 14:00N 28°08' W 015°25'0 1.0
2017-Sep-15 13:30N 28°08' W 015°25'0 0.0
2017-Sep-15 13:00N 28°08' W 015°25'0 0.0
2017-Sep-15 12:30N 28°08' W 015°25'0 0.9
2017-Sep-15 12:00N 28°09' W 015°25'0 0.8
2017-Sep-15 11:30N 28°08' W 015°25'1 1.8
2017-Sep-15 11:00N 28°07' W 015°24'1 2.8
2017-Sep-15 10:30N 28°08' W 015°25'0 0.0
2017-Sep-15 10:00N 28°08' W 015°25'0 0.0
2017-Sep-15 09:30N 28°08' W 015°25'0 0.0
2017-Sep-15 09:00N 28°08' W 015°25'0 0.0
2017-Sep-15 08:30N 28°08' W 015°25'0 0.0
2017-Sep-15 08:00N 28°08' W 015°25'0 0.0
2017-Sep-15 07:31N 28°08' W 015°25'0 0.0
2017-Sep-15 07:00N 28°08' W 015°25'0 0.0
2017-Sep-15 06:30N 28°08' W 015°25'0 0.0
2017-Sep-15 06:01N 28°08' W 015°25'0 0.0
2017-Sep-15 05:30N 28°08' W 015°25'0 0.0
2017-Sep-15 05:00N 28°08' W 015°25'0 0.0
2017-Sep-15 04:31N 28°08' W 015°25'0 0.0
2017-Sep-15 04:01N 28°08' W 015°25'0 0.0
2017-Sep-15 03:30N 28°08' W 015°25'0 0.0
2017-Sep-15 03:00N 28°08' W 015°25'1 2.2
2017-Sep-15 02:30N 28°08' W 015°24'0 0.4
2017-Sep-15 02:00N 28°08' W 015°25'0 0.1
2017-Sep-15 01:31N 28°08' W 015°25'1 2.0
2017-Sep-15 01:00N 28°09' W 015°24'0 0.2
2017-Sep-15 00:30N 28°09' W 015°25'1 2.9
2017-Sep-15 00:00N 28°07' W 015°24'0 0.7
2017-Sep-14 23:30N 28°08' W 015°24'2 3.9
2017-Sep-14 23:00N 28°09' W 015°24'0 0.0
2017-Sep-14 22:30N 28°09' W 015°24'0 0.4
2017-Sep-14 22:00N 28°09' W 015°24'1 3.0
2017-Sep-14 21:30N 28°08' W 015°25'0 0.0
2017-Sep-14 21:00N 28°08' W 015°25'0 0.0
2017-Sep-14 20:30N 28°08' W 015°25'0 0.0
2017-Sep-14 20:00N 28°08' W 015°25'0 0.0
2017-Sep-14 19:30N 28°08' W 015°25'0 0.0
2017-Sep-14 19:00N 28°08' W 015°25'0 0.0
2017-Sep-14 18:30N 28°08' W 015°25'0 0.0
2017-Sep-14 18:00N 28°08' W 015°25'0 0.0
2017-Sep-14 17:30N 28°08' W 015°25'0 0.0
2017-Sep-14 17:01N 28°08' W 015°25'0 0.0
2017-Sep-14 16:31N 28°08' W 015°25'0 0.0
2017-Sep-14 16:01N 28°08' W 015°25'0 0.0
2017-Sep-14 15:30N 28°08' W 015°25'0 0.0
2017-Sep-14 15:00N 28°08' W 015°25'0 0.0
2017-Sep-14 14:31N 28°08' W 015°25'0 0.0
2017-Sep-14 14:00N 28°08' W 015°25'0 0.0
2017-Sep-14 13:30N 28°08' W 015°25'0 0.0
2017-Sep-14 13:00N 28°08' W 015°25'0 0.0
2017-Sep-14 12:30N 28°08' W 015°25'0 0.0
2017-Sep-14 12:01N 28°08' W 015°25'1 1.2
2017-Sep-14 11:30N 28°08' W 015°25'1 2.4
2017-Sep-14 11:00N 28°07' W 015°24'2 3.5
2017-Sep-14 10:30N 28°08' W 015°25'0 0.0
2017-Sep-14 10:00N 28°08' W 015°25'0 0.0
2017-Sep-14 09:30N 28°08' W 015°25'0 0.0
2017-Sep-14 09:00N 28°08' W 015°25'0 0.0
2017-Sep-14 08:30N 28°08' W 015°25'0 0.0
2017-Sep-14 08:00N 28°08' W 015°25'0 0.0
2017-Sep-14 07:30N 28°08' W 015°25'0 0.0
2017-Sep-14 07:00N 28°08' W 015°25'0 0.0
2017-Sep-14 06:30N 28°08' W 015°25'0 0.0
2017-Sep-14 06:00N 28°08' W 015°25'0 0.0
2017-Sep-14 05:30N 28°08' W 015°25'0 0.0
2017-Sep-14 05:00N 28°08' W 015°25'0 0.0
2017-Sep-14 04:30N 28°08' W 015°25'0 0.0
2017-Sep-14 04:00N 28°08' W 015°25'0 0.0
2017-Sep-14 03:30N 28°08' W 015°25'0 0.0
2017-Sep-14 03:00N 28°08' W 015°25'0 0.0
2017-Sep-14 02:31N 28°08' W 015°25'0 0.0
2017-Sep-14 02:01N 28°08' W 015°25'  
Track history (hours):
 
Tides and Currents Weather Stations Pressure Air Temp Water Temp Dewpoint Dewpoint Depression Visibility Wind Speed Wind Dir Waves Ship Positions

Vb Adriatico

Last reported at 2017-Sep-24 01:30 UTC. Time now 2017-Sep-24 01:40 UTC.
Position N 28°08' W 015°25'.

Length 28 m; draft 3 m.

Type: Tug. MMSI: 224870000.

Date/timePositionNaut miles runAvg speedWind from/ knotsBaromVisibWave heightAir tempDewpointWater temp
2017-Sep-24 01:30N 28°08' W 015°25'1 1.4
2017-Sep-24 01:00N 28°08' W 015°25'1 1.4
2017-Sep-24 00:31N 28°08' W 015°25'0 0.0
2017-Sep-24 00:00N 28°08' W 015°25'2 3.5
2017-Sep-23 23:31N 28°10' W 015°24'0 0.7
2017-Sep-23 23:00N 28°09' W 015°24'0 0.4
2017-Sep-23 22:30N 28°09' W 015°24'1 2.8
2017-Sep-23 22:00N 28°08' W 015°25'0 0.3
2017-Sep-23 21:30N 28°08' W 015°25'0 0.0
2017-Sep-23 21:01N 28°08' W 015°25'0 0.0
2017-Sep-23 20:30N 28°08' W 015°25'0 0.0
2017-Sep-23 20:00N 28°08' W 015°25'0 0.0
2017-Sep-22 02:00N 28°08' W 015°25'0 0.0
2017-Sep-22 01:30N 28°08' W 015°25'0 0.0
2017-Sep-22 01:00N 28°08' W 015°25'0 0.4
2017-Sep-22 00:30N 28°08' W 015°25'0 0.4
2017-Sep-22 00:00N 28°08' W 015°25'0 0.0
2017-Sep-21 23:30N 28°08' W 015°25'0 0.0
2017-Sep-21 23:00N 28°08' W 015°25'0 0.0
2017-Sep-21 22:30N 28°08' W 015°25'0 0.0
2017-Sep-21 22:00N 28°08' W 015°25'1 1.8
2017-Sep-21 21:30N 28°07' W 015°25'1 2.2
2017-Sep-21 21:00N 28°09' W 015°25'0 0.8
2017-Sep-21 20:30N 28°08' W 015°25'0 0.4
2017-Sep-21 20:00N 28°08' W 015°25'0 0.8
2017-Sep-21 19:30N 28°08' W 015°25'1 2.3
2017-Sep-21 19:00N 28°07' W 015°24'1 2.3
2017-Sep-21 18:30N 28°08' W 015°25'0 0.5
2017-Sep-21 18:00N 28°08' W 015°25'0 0.0
2017-Sep-21 17:30N 28°08' W 015°25'0 0.0
2017-Sep-21 17:00N 28°08' W 015°25'0 0.0
2017-Sep-21 16:30N 28°08' W 015°25'0 0.0
2017-Sep-21 16:00N 28°08' W 015°25'0 0.0
2017-Sep-21 15:30N 28°08' W 015°25'0 0.0
2017-Sep-21 15:00N 28°08' W 015°25'1 2.2
2017-Sep-21 14:31N 28°08' W 015°24'1 2.6
2017-Sep-21 14:00N 28°09' W 015°24'0 0.9
2017-Sep-21 13:31N 28°09' W 015°24'0 0.4
2017-Sep-21 13:00N 28°09' W 015°24'1 2.6
2017-Sep-21 12:30N 28°08' W 015°25'0 0.0
2017-Sep-21 12:00N 28°08' W 015°25'0 0.0
2017-Sep-21 11:30N 28°08' W 015°25'1 1.5
2017-Sep-21 11:00N 28°09' W 015°25'0 0.4
2017-Sep-21 10:30N 28°08' W 015°25'1 2.4
2017-Sep-21 10:00N 28°07' W 015°24'1 2.5
2017-Sep-21 09:30N 28°08' W 015°25'0 0.0
2017-Sep-21 09:00N 28°08' W 015°25'0 0.0
2017-Sep-21 08:30N 28°08' W 015°25'0 0.0
2017-Sep-21 08:00N 28°08' W 015°25'0 0.0
2017-Sep-21 07:30N 28°08' W 015°25'0 0.1
2017-Sep-21 07:00N 28°08' W 015°25'0 0.1
2017-Sep-21 06:30N 28°08' W 015°25'0 0.0
2017-Sep-21 06:00N 28°08' W 015°25'0 0.0
2017-Sep-21 05:30N 28°08' W 015°25'0 0.2
2017-Sep-21 05:00N 28°08' W 015°25'0 0.2
2017-Sep-21 04:30N 28°08' W 015°25'0 0.0
2017-Sep-21 04:00N 28°08' W 015°25'0 0.0
2017-Sep-21 03:30N 28°08' W 015°25'0 0.0
2017-Sep-21 03:00N 28°08' W 015°25'0 0.0
2017-Sep-21 02:30N 28°08' W 015°25'0 0.0
2017-Sep-21 02:00N 28°08' W 015°25'0 0.0
2017-Sep-21 01:30N 28°08' W 015°25'0 0.0
2017-Sep-21 01:00N 28°08' W 015°25'1 1.4
2017-Sep-21 00:30N 28°08' W 015°25'5 9.5
2017-Sep-21 00:00N 28°03' W 015°23'5 9.5
2017-Sep-20 23:30N 27°59' W 015°20'5 9.3
2017-Sep-20 23:01N 27°55' W 015°18'510.1
2017-Sep-20 22:31N 27°51' W 015°22'2 0.9
2017-Sep-20 20:11N 27°51' W 015°24'0 0.0
2017-Sep-20 19:57N 27°51' W 015°24'0 0.0
2017-Sep-20 19:25N 27°51' W 015°24'0 0.0
2017-Sep-20 19:00N 27°51' W 015°24'1 1.7
2017-Sep-20 18:27N 27°50' W 015°23'511.3
2017-Sep-20 18:00N 27°54' W 015°19'510.8
2017-Sep-20 17:30N 27°59' W 015°20'510.8
2017-Sep-20 17:00N 28°04' W 015°23'5 9.3
2017-Sep-20 16:30N 28°08' W 015°25'0 0.0
2017-Sep-20 16:00N 28°08' W 015°25'0 0.0
2017-Sep-20 15:30N 28°08' W 015°25'0 0.0
2017-Sep-20 15:00N 28°08' W 015°25'0 0.0
2017-Sep-20 14:00N 28°08' W 015°25'0 0.0
2017-Sep-20 13:30N 28°08' W 015°25'0 0.0
2017-Sep-20 13:00N 28°08' W 015°25'0 0.0
2017-Sep-20 12:30N 28°08' W 015°25'0 0.0
2017-Sep-20 12:00N 28°08' W 015°25'0 0.0
2017-Sep-20 11:30N 28°08' W 015°25'0 0.0
2017-Sep-20 11:00N 28°08' W 015°25'0 0.0
2017-Sep-20 10:30N 28°08' W 015°25'0 0.0
2017-Sep-20 10:00N 28°08' W 015°25'0 0.0
2017-Sep-20 09:30N 28°08' W 015°25'0 0.0
2017-Sep-20 09:00N 28°08' W 015°25'0 0.0
2017-Sep-20 08:30N 28°08' W 015°25'0 0.0
2017-Sep-20 08:00N 28°08' W 015°25'0 0.8
2017-Sep-20 07:30N 28°08' W 015°25'1 1.4
2017-Sep-20 07:00N 28°08' W 015°25'1 1.0
2017-Sep-20 06:30N 28°08' W 015°25'0 0.0
2017-Sep-20 06:00N 28°08' W 015°25'0 0.0
2017-Sep-20 05:30N 28°08' W 015°25'0 0.0
2017-Sep-20 05:00N 28°08' W 015°25'0 0.0
2017-Sep-20 04:30N 28°08' W 015°25'0 0.0
2017-Sep-20 04:00N 28°08' W 015°25'0 0.0
2017-Sep-20 03:30N 28°08' W 015°25'0 0.0
2017-Sep-20 03:00N 28°08' W 015°25'0 0.0
2017-Sep-20 02:30N 28°08' W 015°25'0 0.0
2017-Sep-20 02:00N 28°08' W 015°25'0 0.0
2017-Sep-20 01:30N 28°08' W 015°25'0 0.6
2017-Sep-20 01:00N 28°08' W 015°25'0 0.6
2017-Sep-20 00:30N 28°08' W 015°25'0 0.0
2017-Sep-20 00:00N 28°08' W 015°25'0 0.0
2017-Sep-19 23:30N 28°08' W 015°25'0 0.0
2017-Sep-19 23:00N 28°08' W 015°25'0 0.0
2017-Sep-19 22:30N 28°08' W 015°25'0 0.0
2017-Sep-19 21:59N 28°08' W 015°25'0 0.0
2017-Sep-19 21:30N 28°08' W 015°25'0 0.0
2017-Sep-19 21:00N 28°08' W 015°25'0 0.0
2017-Sep-19 20:31N 28°08' W 015°25'0 0.0
2017-Sep-19 20:00N 28°08' W 015°25'0 0.0
2017-Sep-19 19:31N 28°08' W 015°25'0 0.0
2017-Sep-19 19:00N 28°08' W 015°25'0 0.0
2017-Sep-19 18:30N 28°08' W 015°25'0 0.8
2017-Sep-19 18:01N 28°09' W 015°25'0 0.8
2017-Sep-19 17:31N 28°08' W 015°25'0 0.0
2017-Sep-19 17:00N 28°08' W 015°25'0 0.0
2017-Sep-19 16:30N 28°08' W 015°25'1 1.3
2017-Sep-19 16:00N 28°08' W 015°25'1 1.3
2017-Sep-19 15:30N 28°08' W 015°25'0 0.0
2017-Sep-19 15:00N 28°08' W 015°25'0 0.0
2017-Sep-19 14:30N 28°08' W 015°25'0 0.0
2017-Sep-19 14:00N 28°08' W 015°25'0 0.0
2017-Sep-19 13:30N 28°08' W 015°25'1 1.2
2017-Sep-19 13:00N 28°08' W 015°25'0 0.2
2017-Sep-19 12:30N 28°08' W 015°25'1 1.4
2017-Sep-19 12:00N 28°07' W 015°24'0 0.2
2017-Sep-19 11:30N 28°07' W 015°24'1 2.5
2017-Sep-19 11:00N 28°08' W 015°25'0 0.0
2017-Sep-19 10:30N 28°08' W 015°25'0 0.0
2017-Sep-19 10:00N 28°08' W 015°25'0 0.0
2017-Sep-19 09:31N 28°08' W 015°25'0 0.0
2017-Sep-19 09:00N 28°08' W 015°25'0 0.0
2017-Sep-19 08:31N 28°08' W 015°25'0 0.0
2017-Sep-19 08:00N 28°08' W 015°25'0 0.0
2017-Sep-19 07:30N 28°08' W 015°25'0 0.0
2017-Sep-19 07:00N 28°08' W 015°25'0 0.0
2017-Sep-19 06:30N 28°08' W 015°25'0 0.0
2017-Sep-19 06:00N 28°08' W 015°25'0 0.0
2017-Sep-19 05:30N 28°08' W 015°25'0 0.0
2017-Sep-19 05:00N 28°08' W 015°25'0 0.0
2017-Sep-19 04:30N 28°08' W 015°25'0 0.0
2017-Sep-19 04:00N 28°08' W 015°25'0 0.0
2017-Sep-19 03:30N 28°08' W 015°25'0 0.0
2017-Sep-19 03:00N 28°08' W 015°25'0 0.0
2017-Sep-19 02:30N 28°08' W 015°25'0 0.0
2017-Sep-19 02:00N 28°08' W 015°25'0 0.0
2017-Sep-19 01:30N 28°08' W 015°25'1 2.3
2017-Sep-19 01:00N 28°07' W 015°25'0 0.9
2017-Sep-19 00:30N 28°08' W 015°25'1 1.6
2017-Sep-19 00:00N 28°08' W 015°25'0 0.0
2017-Sep-18 23:30N 28°08' W 015°25'0 0.0
2017-Sep-18 23:00N 28°08' W 015°25'0 0.0
2017-Sep-18 22:30N 28°08' W 015°25'0 0.0
2017-Sep-18 22:00N 28°08' W 015°25'0 0.0
2017-Sep-18 21:30N 28°08' W 015°25'0 0.0
2017-Sep-18 21:00N 28°08' W 015°25'0 0.0
2017-Sep-18 20:30N 28°08' W 015°25'0 0.0
2017-Sep-18 20:01N 28°08' W 015°25'0 0.1
2017-Sep-18 19:30N 28°08' W 015°25'0 0.1
2017-Sep-18 19:00N 28°08' W 015°25'0 0.0
2017-Sep-18 18:30N 28°08' W 015°25'0 0.0
2017-Sep-18 18:01N 28°08' W 015°25'0 0.0
2017-Sep-18 17:30N 28°08' W 015°25'0 0.0
2017-Sep-18 17:00N 28°08' W 015°25'0 0.0
2017-Sep-18 16:30N 28°08' W 015°25'0 0.0
2017-Sep-18 16:00N 28°08' W 015°25'0 0.0
2017-Sep-18 15:30N 28°08' W 015°25'0 0.0
2017-Sep-18 15:00N 28°08' W 015°25'0 0.0
2017-Sep-18 14:31N 28°08' W 015°25'0 0.0
2017-Sep-18 14:00N 28°08' W 015°25'0 0.5
2017-Sep-18 13:30N 28°08' W 015°25'0 0.4
2017-Sep-18 13:00N 28°08' W 015°25'0 0.2
2017-Sep-18 12:30N 28°08' W 015°25'0 0.0
2017-Sep-18 12:00N 28°08' W 015°25'0 0.0
2017-Sep-18 11:30N 28°08' W 015°25'0 0.0
2017-Sep-18 11:00N 28°08' W 015°25'0 0.0
2017-Sep-18 10:30N 28°08' W 015°25'0 0.0
2017-Sep-18 10:00N 28°08' W 015°25'0 0.0
2017-Sep-18 09:30N 28°08' W 015°25'0 0.0
2017-Sep-18 09:00N 28°08' W 015°25'0 0.0
2017-Sep-18 08:30N 28°08' W 015°25'0 0.0
2017-Sep-18 08:00N 28°08' W 015°25'0 0.0
2017-Sep-18 07:30N 28°08' W 015°25'0 0.0
2017-Sep-18 07:01N 28°08' W 015°25'0 0.0
2017-Sep-18 06:30N 28°08' W 015°25'1 1.4
2017-Sep-18 06:01N 28°08' W 015°25'1 1.4
2017-Sep-18 05:30N 28°08' W 015°25'0 0.0
2017-Sep-18 05:00N 28°08' W 015°25'0 0.0
2017-Sep-18 04:30N 28°08' W 015°25'0 0.0
2017-Sep-18 04:00N 28°08' W 015°25'0 0.0
2017-Sep-18 03:30N 28°08' W 015°25'0 0.0
2017-Sep-18 03:00N 28°08' W 015°25'0 0.0
2017-Sep-18 02:30N 28°08' W 015°25'0 0.0
2017-Sep-18 02:00N 28°08' W 015°25'0 0.0
2017-Sep-18 01:30N 28°08' W 015°25'0 0.0
2017-Sep-18 01:00N 28°08' W 015°25'0 0.0
2017-Sep-18 00:31N 28°08' W 015°25'0 0.0
2017-Sep-18 00:00N 28°08' W 015°25'0 0.0
2017-Sep-17 23:30N 28°08' W 015°25'0 0.0
2017-Sep-17 23:00N 28°08' W 015°25'0 0.0
2017-Sep-17 22:30N 28°08' W 015°25'0 0.0
2017-Sep-17 22:00N 28°08' W 015°25'0 0.0
2017-Sep-17 21:30N 28°08' W 015°25'0 0.0
2017-Sep-17 21:00N 28°08' W 015°25'0 0.0
2017-Sep-17 20:30N 28°08' W 015°25'0 0.0
2017-Sep-17 20:00N 28°08' W 015°25'0 0.0
2017-Sep-17 19:30N 28°08' W 015°25'0 0.0
2017-Sep-17 19:00N 28°08' W 015°25'0 0.0
2017-Sep-17 18:31N 28°08' W 015°25'0 0.0
2017-Sep-17 18:00N 28°08' W 015°25'0 0.0
2017-Sep-17 17:30N 28°08' W 015°25'0 0.0
2017-Sep-17 17:00N 28°08' W 015°25'0 0.0
2017-Sep-17 16:30N 28°08' W 015°25'0 0.0
2017-Sep-17 16:01N 28°08' W 015°25'0 0.0
2017-Sep-17 15:31N 28°08' W 015°25'0 0.0
2017-Sep-17 15:00N 28°08' W 015°25'0 0.0
2017-Sep-17 14:30N 28°08' W 015°25'0 0.0
2017-Sep-17 14:00N 28°08' W 015°25'0 0.0
2017-Sep-17 13:30N 28°08' W 015°25'0 0.0
2017-Sep-17 13:00N 28°08' W 015°25'0 0.0
2017-Sep-17 12:31N 28°08' W 015°25'0 0.0
2017-Sep-17 12:01N 28°08' W 015°25'0 0.0
2017-Sep-17 11:31N 28°08' W 015°25'1 1.6
2017-Sep-17 11:00N 28°08' W 015°25'1 1.2
2017-Sep-17 10:30N 28°07' W 015°24'0 0.7
2017-Sep-17 10:00N 28°08' W 015°25'1 1.0
2017-Sep-17 09:30N 28°08' W 015°25'1 1.3
2017-Sep-17 09:00N 28°08' W 015°25'0 0.0
2017-Sep-17 08:30N 28°08' W 015°25'0 0.0
2017-Sep-17 08:00N 28°08' W 015°25'0 0.0
2017-Sep-17 07:30N 28°08' W 015°25'0 0.0
2017-Sep-17 07:00N 28°08' W 015°25'0 0.0
2017-Sep-17 06:30N 28°08' W 015°25'0 0.0
2017-Sep-17 06:00N 28°08' W 015°25'0 0.0
2017-Sep-17 05:30N 28°08' W 015°25'0 0.0
2017-Sep-17 05:00N 28°08' W 015°25'1 1.4
2017-Sep-17 04:30N 28°08' W 015°25'1 1.2
2017-Sep-17 04:00N 28°09' W 015°25'0 0.9
2017-Sep-17 03:30N 28°08' W 015°25'0 0.0
2017-Sep-17 03:00N 28°08' W 015°25'0 0.0
2017-Sep-17 02:30N 28°08' W 015°25'0 0.0
2017-Sep-17 02:01N 28°08' W 015°25'0 0.0
2017-Sep-17 01:30N 28°08' W 015°25'0 0.4
2017-Sep-17 01:01N 28°08' W 015°25'0 0.0
2017-Sep-17 00:31N 28°08' W 015°25'0 0.0
2017-Sep-17 00:00N 28°08' W 015°25'0 0.0
2017-Sep-16 23:30N 28°08' W 015°25'0 0.0
2017-Sep-16 23:00N 28°08' W 015°25'0 0.0
2017-Sep-16 22:31N 28°08' W 015°25'0 0.0
2017-Sep-16 22:01N 28°08' W 015°25'0 0.0
2017-Sep-16 21:30N 28°08' W 015°25'0 0.0
2017-Sep-16 21:01N 28°08' W 015°25'0 0.0
2017-Sep-16 20:30N 28°08' W 015°25'0 0.0
2017-Sep-16 20:01N 28°08' W 015°25'0 0.0
2017-Sep-16 19:30N 28°08' W 015°25'0 0.0
2017-Sep-16 19:00N 28°08' W 015°25'0 0.0
2017-Sep-16 18:30N 28°08' W 015°25'0 0.0
2017-Sep-16 18:00N 28°08' W 015°25'0 0.0
2017-Sep-16 17:30N 28°08' W 015°25'0 0.0
2017-Sep-16 17:00N 28°08' W 015°25'0 0.0
2017-Sep-16 16:30N 28°08' W 015°25'0 0.0
2017-Sep-16 16:00N 28°08' W 015°25'0 0.0
2017-Sep-16 15:30N 28°08' W 015°25'0 0.0
2017-Sep-16 15:00N 28°08' W 015°25'0 0.0
2017-Sep-16 14:30N 28°08' W 015°25'0 0.0
2017-Sep-16 14:00N 28°08' W 015°25'1 1.7
2017-Sep-16 13:30N 28°09' W 015°24'0 0.1
2017-Sep-16 13:00N 28°09' W 015°25'1 2.0
2017-Sep-16 12:30N 28°08' W 015°25'0 0.2
2017-Sep-16 12:00N 28°08' W 015°25'0 0.3
2017-Sep-16 11:31N 28°08' W 015°25'1 1.8
2017-Sep-16 11:00N 28°09' W 015°25'0 0.0
2017-Sep-16 10:30N 28°09' W 015°25'1 2.2
2017-Sep-16 10:00N 28°08' W 015°25'1 2.8
2017-Sep-16 09:30N 28°09' W 015°25'2 3.1
2017-Sep-16 09:01N 28°08' W 015°25'1 1.7
2017-Sep-16 08:31N 28°08' W 015°25'0 0.0
2017-Sep-16 08:00N 28°08' W 015°25'0 0.0
2017-Sep-16 07:30N 28°08' W 015°25'0 0.0
2017-Sep-16 07:00N 28°08' W 015°25'0 0.0
2017-Sep-16 06:30N 28°08' W 015°25'0 0.0
2017-Sep-16 06:00N 28°08' W 015°25'0 0.0
2017-Sep-16 05:30N 28°08' W 015°25'0 0.0
2017-Sep-16 05:00N 28°08' W 015°25'0 0.0
2017-Sep-16 04:30N 28°08' W 015°25'0 0.0
2017-Sep-16 04:00N 28°08' W 015°25'0 0.0
2017-Sep-16 03:30N 28°08' W 015°25'1 1.2
2017-Sep-16 03:00N 28°08' W 015°25'1 1.2
2017-Sep-16 02:30N 28°08' W 015°25'0 0.0
2017-Sep-16 02:00N 28°08' W 015°25'0 0.0
2017-Sep-16 01:30N 28°08' W 015°25'0 0.0
2017-Sep-16 01:00N 28°08' W 015°25'0 0.0
2017-Sep-16 00:30N 28°08' W 015°25'0 0.0
2017-Sep-16 00:00N 28°08' W 015°25'0 0.0
2017-Sep-15 23:30N 28°08' W 015°25'0 0.0
2017-Sep-15 23:00N 28°08' W 015°25'0 0.0
2017-Sep-15 22:30N 28°08' W 015°25'0 0.0
2017-Sep-15 22:00N 28°08' W 015°25'0 0.0
2017-Sep-15 21:31N 28°08' W 015°25'0 0.0
2017-Sep-15 21:00N 28°08' W 015°25'0 0.0
2017-Sep-15 20:31N 28°08' W 015°25'0 0.0
2017-Sep-15 20:00N 28°08' W 015°25'0 0.0
2017-Sep-15 19:30N 28°08' W 015°25'0 0.0
2017-Sep-15 19:00N 28°08' W 015°25'0 0.0
2017-Sep-15 18:30N 28°08' W 015°25'0 0.0
2017-Sep-15 18:00N 28°08' W 015°25'0 0.0
2017-Sep-15 17:31N 28°08' W 015°25'0 0.0
2017-Sep-15 17:00N 28°08' W 015°25'0 0.0
2017-Sep-15 16:31N 28°08' W 015°25'0 0.0
2017-Sep-15 16:00N 28°08' W 015°25'1 1.8
2017-Sep-15 15:30N 28°08' W 015°25'1 1.3
2017-Sep-15 15:00N 28°07' W 015°24'1 1.8
2017-Sep-15 14:30N 28°08' W 015°25'0 0.3
2017-Sep-15 14:00N 28°08' W 015°25'0 1.0
2017-Sep-15 13:30N 28°08' W 015°25'0 0.0
2017-Sep-15 13:00N 28°08' W 015°25'0 0.0
2017-Sep-15 12:30N 28°08' W 015°25'0 0.9
2017-Sep-15 12:00N 28°09' W 015°25'0 0.8
2017-Sep-15 11:30N 28°08' W 015°25'1 1.8
2017-Sep-15 11:00N 28°07' W 015°24'1 2.8
2017-Sep-15 10:30N 28°08' W 015°25'0 0.0
2017-Sep-15 10:00N 28°08' W 015°25'0 0.0
2017-Sep-15 09:30N 28°08' W 015°25'0 0.0
2017-Sep-15 09:00N 28°08' W 015°25'0 0.0
2017-Sep-15 08:30N 28°08' W 015°25'0 0.0
2017-Sep-15 08:00N 28°08' W 015°25'0 0.0
2017-Sep-15 07:31N 28°08' W 015°25'0 0.0
2017-Sep-15 07:00N 28°08' W 015°25'0 0.0
2017-Sep-15 06:30N 28°08' W 015°25'0 0.0
2017-Sep-15 06:01N 28°08' W 015°25'0 0.0
2017-Sep-15 05:30N 28°08' W 015°25'0 0.0
2017-Sep-15 05:00N 28°08' W 015°25'0 0.0
2017-Sep-15 04:31N 28°08' W 015°25'0 0.0
2017-Sep-15 04:01N 28°08' W 015°25'0 0.0
2017-Sep-15 03:30N 28°08' W 015°25'0 0.0
2017-Sep-15 03:00N 28°08' W 015°25'1 2.2
2017-Sep-15 02:30N 28°08' W 015°24'0 0.4
2017-Sep-15 02:00N 28°08' W 015°25'0 0.1
2017-Sep-15 01:31N 28°08' W 015°25'1 2.0
2017-Sep-15 01:00N 28°09' W 015°24'0 0.2
2017-Sep-15 00:30N 28°09' W 015°25'1 2.9
2017-Sep-15 00:00N 28°07' W 015°24'0 0.7
2017-Sep-14 23:30N 28°08' W 015°24'2 3.9
2017-Sep-14 23:00N 28°09' W 015°24'0 0.0
2017-Sep-14 22:30N 28°09' W 015°24'0 0.4
2017-Sep-14 22:00N 28°09' W 015°24'1 3.0
2017-Sep-14 21:30N 28°08' W 015°25'0 0.0
2017-Sep-14 21:00N 28°08' W 015°25'0 0.0
2017-Sep-14 20:30N 28°08' W 015°25'0 0.0
2017-Sep-14 20:00N 28°08' W 015°25'0 0.0
2017-Sep-14 19:30N 28°08' W 015°25'0 0.0
2017-Sep-14 19:00N 28°08' W 015°25'0 0.0
2017-Sep-14 18:30N 28°08' W 015°25'0 0.0
2017-Sep-14 18:00N 28°08' W 015°25'0 0.0
2017-Sep-14 17:30N 28°08' W 015°25'0 0.0
2017-Sep-14 17:01N 28°08' W 015°25'0 0.0
2017-Sep-14 16:31N 28°08' W 015°25'0 0.0
2017-Sep-14 16:01N 28°08' W 015°25'0 0.0
2017-Sep-14 15:30N 28°08' W 015°25'0 0.0
2017-Sep-14 15:00N 28°08' W 015°25'0 0.0
2017-Sep-14 14:31N 28°08' W 015°25'0 0.0
2017-Sep-14 14:00N 28°08' W 015°25'0 0.0
2017-Sep-14 13:30N 28°08' W 015°25'0 0.0
2017-Sep-14 13:00N 28°08' W 015°25'0 0.0
2017-Sep-14 12:30N 28°08' W 015°25'0 0.0
2017-Sep-14 12:01N 28°08' W 015°25'1 1.2
2017-Sep-14 11:30N 28°08' W 015°25'1 2.4
2017-Sep-14 11:00N 28°07' W 015°24'2 3.5
2017-Sep-14 10:30N 28°08' W 015°25'0 0.0
2017-Sep-14 10:00N 28°08' W 015°25'0 0.0
2017-Sep-14 09:30N 28°08' W 015°25'0 0.0
2017-Sep-14 09:00N 28°08' W 015°25'0 0.0
2017-Sep-14 08:30N 28°08' W 015°25'0 0.0
2017-Sep-14 08:00N 28°08' W 015°25'0 0.0
2017-Sep-14 07:30N 28°08' W 015°25'0 0.0
2017-Sep-14 07:00N 28°08' W 015°25'0 0.0
2017-Sep-14 06:30N 28°08' W 015°25'0 0.0
2017-Sep-14 06:00N 28°08' W 015°25'0 0.0
2017-Sep-14 05:30N 28°08' W 015°25'0 0.0
2017-Sep-14 05:00N 28°08' W 015°25'0 0.0
2017-Sep-14 04:30N 28°08' W 015°25'0 0.0
2017-Sep-14 04:00N 28°08' W 015°25'0 0.0
2017-Sep-14 03:30N 28°08' W 015°25'0 0.0
2017-Sep-14 03:00N 28°08' W 015°25'0 0.0
2017-Sep-14 02:31N 28°08' W 015°25'0 0.0
2017-Sep-14 02:01N 28°08' W 015°25'  

Dump ship's entire track history